Terminal Aerodrome Forecast
Issued by NWS Sioux Falls, SD

Home | Current Version | Previous Version | Text Only | Print | Product List | Glossary On
Versions: 1 2 3 4 5 6 7 8 9 10 11 12 13 14 15 16 17 18 19 20 21 22 23
356
FTUS43 KFSD 222323 AAC
TAFFSD
TAF AMD
KFSD 222323Z 2223/2324 06011KT P6SM BKN020 OVC040
     FM230300 07011KT 6SM BR OVC015
     FM230500 07010KT 3SM BR OVC008
     FM230600 08010KT 3SM BR OVC008
     FM230700 08009KT 3SM BR OVC003
     FM230900 08010KT 2SM BR OVC003
     FM231500 11011KT P6SM OVC008
     FM231800 12012KT P6SM BKN250=

USA.gov is the U.S. government's official web portal to all federal, state and local government web resources and services.